Time;durP1;ratioP1;P1;durP2;ratioP2;P2;SDS_P1;SDS_P2;PMS_P1;PMS_P2;Temp;Humidity;BMP_temperature;BMP_pressure;BME280_temperature;BME280_humidity;BME280_pressure;Samples;Min_cycle;Max_cycle;Signal;HPM_P1;HPM_P2
2022/09/17 00:00:57;;;;;;;1.50;1.10;;;11.70;98.20;;;;;;4932470;29;20542;-76
2022/09/17 00:03:24;;;;;;;1.50;1.10;;;11.80;98.20;;;;;;4926725;29;20529;-77
2022/09/17 00:06:00;;;;;;;1.50;1.10;;;11.80;98.20;;;;;;4932824;29;20522;-77
2022/09/17 00:08:27;;;;;;;1.50;1.00;;;11.80;98.20;;;;;;4933979;29;20467;-75
2022/09/17 00:10:54;;;;;;;1.50;1.10;;;11.80;98.20;;;;;;4931594;29;20518;-75
2022/09/17 00:13:23;;;;;;;1.50;1.10;;;11.80;98.20;;;;;;4932291;29;20527;-76
2022/09/17 00:15:51;;;;;;;1.50;1.10;;;11.80;98.20;;;;;;4930649;29;20594;-75
2022/09/17 00:18:18;;;;;;;1.50;1.10;;;11.80;98.20;;;;;;4930681;29;20831;-76
2022/09/17 00:20:46;;;;;;;1.50;1.10;;;11.80;98.20;;;;;;4931747;29;20467;-75
2022/09/17 00:23:14;;;;;;;1.50;1.10;;;11.80;98.20;;;;;;4930377;29;20463;-76
2022/09/17 00:25:43;;;;;;;1.50;1.10;;;11.80;98.20;;;;;;4930841;29;20496;-75
2022/09/17 00:28:10;;;;;;;1.50;1.00;;;11.80;98.20;;;;;;4931208;29;20472;-76
2022/09/17 00:30:40;;;;;;;1.50;1.10;;;11.80;98.20;;;;;;4930947;29;20518;-76
2022/09/17 00:33:08;;;;;;;1.50;1.10;;;11.80;98.20;;;;;;4929981;29;20476;-76
2022/09/17 00:35:35;;;;;;;1.50;1.10;;;11.80;98.20;;;;;;4929917;29;20482;-75
2022/09/17 00:38:02;;;;;;;1.50;1.10;;;11.80;98.20;;;;;;4931910;29;20468;-76
2022/09/17 00:40:29;;;;;;;1.50;1.10;;;11.80;98.20;;;;;;4931467;29;20500;-76
2022/09/17 00:42:56;;;;;;;1.50;1.10;;;11.80;98.20;;;;;;4930439;29;20467;-76
2022/09/17 00:45:24;;;;;;;1.50;1.10;;;11.80;98.20;;;;;;4930565;29;20582;-76
2022/09/17 00:47:59;;;;;;;1.50;1.03;;;11.80;98.20;;;;;;4933489;29;20807;-74
2022/09/17 00:50:29;;;;;;;1.50;1.00;;;11.80;98.20;;;;;;4934591;29;20477;-76
2022/09/17 00:53:00;;;;;;;1.50;1.27;;;11.80;98.20;;;;;;4933234;29;20478;-76
2022/09/17 00:55:31;;;;;;;1.50;0.97;;;11.80;98.20;;;;;;4933619;29;20495;-75
2022/09/17 00:58:16;;;;;;;1.50;1.10;;;11.80;98.20;;;;;;4935671;29;20977;-76
2022/09/17 01:00:43;;;;;;;1.50;1.10;;;11.80;98.20;;;;;;4934845;29;20558;-76
2022/09/17 01:03:11;;;;;;;1.50;1.10;;;11.80;98.20;;;;;;4932382;29;20490;-76
2022/09/17 01:05:45;;;;;;;1.50;1.00;;;11.80;98.20;;;;;;4932808;29;21127;-75
2022/09/17 01:08:22;;;;;;;4.13;2.90;;;11.80;98.20;;;;;;4933433;29;20522;-76
2022/09/17 01:11:10;;;;;;;1.50;1.10;;;11.80;98.20;;;;;;4933821;29;20987;-77
2022/09/17 01:14:00;;;;;;;1.50;1.10;;;11.80;98.20;;;;;;4934235;29;20499;-75
2022/09/17 01:16:36;;;;;;;1.50;1.10;;;11.80;98.20;;;;;;4928744;29;20464;-75
2022/09/17 01:19:34;;;;;;;1.50;1.10;;;11.80;98.20;;;;;;4930794;29;20550;-75
2022/09/17 01:22:06;;;;;;;1.50;1.10;;;11.80;98.20;;;;;;4929163;29;20460;-74
2022/09/17 01:24:50;;;;;;;1.50;1.10;;;11.80;98.20;;;;;;4932934;29;20510;-75
2022/09/17 01:27:46;;;;;;;1.50;1.10;;;11.80;98.20;;;;;;4933268;29;20894;-75
2022/09/17 01:30:31;;;;;;;1.50;1.10;;;11.80;98.20;;;;;;4931881;29;20472;-75
2022/09/17 01:33:03;;;;;;;1.50;1.10;;;11.80;98.20;;;;;;4933066;29;20464;-76
2022/09/17 01:35:37;;;;;;;1.50;1.10;;;11.80;98.20;;;;;;4931085;29;20479;-76
2022/09/17 01:38:11;;;;;;;1.50;1.20;;;11.80;98.20;;;;;;4935383;29;20471;-77
2022/09/17 01:40:46;;;;;;;1.50;1.10;;;11.80;98.20;;;;;;4933486;29;20467;-76
2022/09/17 01:43:23;;;;;;;1.50;1.10;;;11.80;98.20;;;;;;4932743;29;20562;-76
2022/09/17 01:45:55;;;;;;;1.50;1.10;;;11.70;98.20;;;;;;4933281;29;20567;-76
2022/09/17 01:48:27;;;;;;;1.53;1.10;;;11.80;98.20;;;;;;4928453;29;20479;-75
2022/09/17 01:50:58;;;;;;;1.60;1.10;;;11.80;98.20;;;;;;4932606;29;20483;-76
2022/09/17 01:53:31;;;;;;;1.50;1.10;;;11.70;98.20;;;;;;4933279;29;20471;-76
2022/09/17 01:56:00;;;;;;;1.50;1.10;;;11.70;98.20;;;;;;4928265;29;20464;-76
2022/09/17 01:58:34;;;;;;;1.50;1.00;;;11.70;98.20;;;;;;4935659;29;20861;-76
2022/09/17 02:01:06;;;;;;;1.50;1.10;;;11.70;98.20;;;;;;4931927;29;20880;-76
2022/09/17 02:03:37;;;;;;;1.50;1.10;;;11.70;98.20;;;;;;4931491;29;21001;-76
2022/09/17 02:06:09;;;;;;;1.50;1.10;;;11.70;98.20;;;;;;4931277;29;20495;-76
2022/09/17 02:08:41;;;;;;;1.50;1.00;;;11.70;98.20;;;;;;4932157;29;21362;-76
2022/09/17 02:11:10;;;;;;;1.53;1.10;;;11.60;98.20;;;;;;4931578;29;20558;-75
2022/09/17 02:13:42;;;;;;;1.50;1.10;;;11.60;98.20;;;;;;4931308;29;20468;-75
2022/09/17 02:16:16;;;;;;;1.50;1.10;;;11.60;98.20;;;;;;4931473;29;20463;-76
2022/09/17 02:18:49;;;;;;;1.50;1.20;;;11.60;98.20;;;;;;4927370;29;20470;-77
2022/09/17 02:21:22;;;;;;;1.50;1.10;;;11.60;98.20;;;;;;4933808;29;20491;-76
2022/09/17 02:23:58;;;;;;;1.50;1.00;;;11.60;98.20;;;;;;4933982;29;20472;-74
2022/09/17 02:26:27;;;;;;;1.50;1.10;;;11.60;98.20;;;;;;4933411;29;20487;-75
2022/09/17 02:29:00;;;;;;;1.50;1.17;;;11.60;98.20;;;;;;4932409;29;20467;-74
2022/09/17 02:31:29;;;;;;;1.53;1.10;;;11.60;98.20;;;;;;4932342;29;20506;-75
2022/09/17 02:34:01;;;;;;;1.50;1.10;;;11.60;98.20;;;;;;4932176;29;20581;-75
2022/09/17 02:36:30;;;;;;;1.50;1.03;;;11.60;98.20;;;;;;4932324;29;20456;-75
2022/09/17 02:39:01;;;;;;;1.50;1.10;;;11.60;98.20;;;;;;4933576;29;20531;-74
2022/09/17 02:41:43;;;;;;;1.50;1.10;;;11.60;98.20;;;;;;4931199;29;20519;-76
2022/09/17 02:44:17;;;;;;;1.50;1.03;;;11.60;98.20;;;;;;4932018;29;21043;-75
2022/09/17 02:47:08;;;;;;;1.50;1.10;;;11.60;98.20;;;;;;4930578;29;20823;-75
2022/09/17 02:49:59;;;;;;;1.50;1.10;;;11.60;98.20;;;;;;4933547;29;20515;-75
2022/09/17 02:52:35;;;;;;;1.50;1.10;;;11.70;98.20;;;;;;4932516;29;20468;-75
2022/09/17 02:55:13;;;;;;;1.50;1.10;;;11.70;98.20;;;;;;4935011;29;20989;-74
2022/09/17 02:57:46;;;;;;;1.50;1.10;;;11.70;98.20;;;;;;4935751;29;20570;-75
2022/09/17 03:00:15;;;;;;;1.50;1.10;;;11.70;98.20;;;;;;4932370;29;20907;-76
2022/09/17 03:02:48;;;;;;;1.50;1.10;;;11.80;98.20;;;;;;4929942;29;20474;-75
2022/09/17 03:05:18;;;;;;;1.50;1.10;;;11.80;98.20;;;;;;4929739;29;20543;-76
2022/09/17 03:07:46;;;;;;;1.57;1.10;;;11.80;98.20;;;;;;4924961;29;20475;-75
2022/09/17 03:10:14;;;;;;;1.50;1.10;;;11.80;98.20;;;;;;4931200;29;20475;-75
2022/09/17 03:12:41;;;;;;;1.53;1.10;;;11.80;98.20;;;;;;4924036;29;20531;-75
2022/09/17 03:15:09;;;;;;;1.50;1.03;;;11.80;98.20;;;;;;4929720;29;20496;-75
2022/09/17 03:17:36;;;;;;;1.50;1.10;;;11.80;98.20;;;;;;4931572;29;20961;-75
2022/09/17 03:20:05;;;;;;;1.50;1.00;;;11.80;98.20;;;;;;4925021;29;20962;-75
2022/09/17 03:22:32;;;;;;;1.50;1.10;;;11.80;98.20;;;;;;4927950;29;20467;-74
2022/09/17 03:25:00;;;;;;;1.50;1.10;;;11.80;98.20;;;;;;4931813;29;21017;-75
2022/09/17 03:27:27;;;;;;;1.50;1.00;;;11.80;98.20;;;;;;4930991;29;20589;-74
2022/09/17 03:29:54;;;;;;;1.50;1.07;;;11.70;98.20;;;;;;4925349;29;20486;-76
2022/09/17 03:32:20;;;;;;;1.50;1.00;;;11.70;98.20;;;;;;4930416;29;21021;-75
2022/09/17 03:34:47;;;;;;;1.50;1.10;;;11.70;98.20;;;;;;4929199;29;20487;-75
2022/09/17 03:37:16;;;;;;;1.50;1.10;;;11.70;98.20;;;;;;4924344;29;20474;-75
2022/09/17 03:39:43;;;;;;;1.50;1.10;;;11.80;98.20;;;;;;4925022;29;20519;-74
2022/09/17 03:42:25;;;;;;;1.50;1.10;;;11.80;98.20;;;;;;4933012;29;20474;-75
2022/09/17 03:44:52;;;;;;;1.50;1.03;;;11.80;98.20;;;;;;4930097;29;20495;-75
2022/09/17 03:47:19;;;;;;;1.50;1.10;;;11.80;98.20;;;;;;4931013;29;20953;-74
2022/09/17 03:49:46;;;;;;;1.50;1.10;;;11.80;98.20;;;;;;4928666;29;20963;-74
2022/09/17 03:52:13;;;;;;;1.50;1.10;;;11.80;98.20;;;;;;4931228;29;20543;-74
2022/09/17 03:54:42;;;;;;;1.50;1.10;;;11.80;98.20;;;;;;4932104;29;20527;-75
2022/09/17 03:57:09;;;;;;;1.50;1.00;;;11.80;98.20;;;;;;4932599;29;20550;-75
2022/09/17 03:59:37;;;;;;;1.50;1.10;;;11.80;98.20;;;;;;4932089;29;20495;-75
2022/09/17 04:02:04;;;;;;;1.50;1.10;;;11.80;98.20;;;;;;4933505;29;20562;-74
2022/09/17 04:04:31;;;;;;;1.50;1.10;;;11.80;98.20;;;;;;4932724;29;21000;-75
2022/09/17 04:06:58;;;;;;;1.50;1.10;;;11.90;98.20;;;;;;4929397;29;20551;-75
2022/09/17 04:09:34;;;;;;;1.50;1.13;;;11.80;98.20;;;;;;4935537;29;20467;-76
2022/09/17 04:12:25;;;;;;;1.50;1.10;;;11.80;98.20;;;;;;4937824;29;20463;-75
2022/09/17 04:14:52;;;;;;;1.50;1.10;;;11.80;98.20;;;;;;4931134;29;20562;-75
2022/09/17 04:17:19;;;;;;;1.50;1.10;;;11.80;98.20;;;;;;4924649;29;20464;-76
2022/09/17 04:19:46;;;;;;;1.50;1.10;;;11.70;98.20;;;;;;4892474;28;20576;-75
2022/09/17 04:22:13;;;;;;;1.50;1.10;;;11.70;98.20;;;;;;4887967;29;20481;-76
2022/09/17 04:24:40;;;;;;;1.50;1.10;;;11.70;98.20;;;;;;4896940;29;20579;-75
2022/09/17 04:27:46;;;;;;;1.50;1.03;;;11.60;98.20;;;;;;4901174;29;20505;-75
2022/09/17 04:30:17;;;;;;;1.50;1.10;;;11.60;98.20;;;;;;4901804;29;20476;-76
2022/09/17 04:33:06;;;;;;;1.50;1.10;;;11.60;98.20;;;;;;4901374;29;20901;-76
2022/09/17 04:35:33;;;;;;;1.53;1.17;;;11.60;98.20;;;;;;4890368;29;20549;-76
2022/09/17 04:38:00;;;;;;;1.50;1.10;;;11.60;98.20;;;;;;4898050;29;20958;-76
2022/09/17 04:40:28;;;;;;;1.57;1.20;;;11.60;98.20;;;;;;4900876;29;20465;-75
2022/09/17 04:43:01;;;;;;;1.57;1.17;;;11.50;98.20;;;;;;4895544;29;20868;-75
2022/09/17 04:45:29;;;;;;;1.50;1.10;;;11.50;98.20;;;;;;4895123;29;20521;-76
2022/09/17 04:47:56;;;;;;;1.50;1.10;;;11.40;98.20;;;;;;4896555;29;20489;-76
2022/09/17 04:50:23;;;;;;;1.57;1.33;;;11.40;98.20;;;;;;4894153;29;20951;-75
2022/09/17 04:52:50;;;;;;;1.53;1.10;;;11.40;98.20;;;;;;4894299;29;20476;-76
2022/09/17 04:55:18;;;;;;;1.50;1.10;;;11.30;98.20;;;;;;4900924;29;20489;-75
2022/09/17 04:57:47;;;;;;;1.50;1.10;;;11.30;98.20;;;;;;4899591;29;20494;-78
2022/09/17 05:00:17;;;;;;;1.50;1.10;;;11.30;98.20;;;;;;4893722;29;20469;-77
2022/09/17 05:02:47;;;;;;;1.50;1.20;;;11.30;98.20;;;;;;4896543;29;20472;-76
2022/09/17 05:05:15;;;;;;;1.53;1.10;;;11.30;98.20;;;;;;4900133;29;20485;-74
2022/09/17 05:07:43;;;;;;;1.50;1.10;;;11.30;98.20;;;;;;4899865;29;20497;-73
2022/09/17 05:10:13;;;;;;;1.50;1.10;;;11.20;98.20;;;;;;4903028;29;20985;-74
2022/09/17 05:12:40;;;;;;;1.50;1.10;;;11.20;98.20;;;;;;4904203;29;20562;-75
2022/09/17 05:15:08;;;;;;;1.50;1.10;;;11.20;98.20;;;;;;4897657;29;20500;-74
2022/09/17 05:17:37;;;;;;;1.50;1.10;;;11.20;98.20;;;;;;4900748;29;20984;-75
2022/09/17 05:20:05;;;;;;;1.53;1.10;;;11.20;98.20;;;;;;4899688;29;20470;-76
2022/09/17 05:22:32;;;;;;;1.50;1.10;;;11.20;98.20;;;;;;4898734;29;20483;-76
2022/09/17 05:24:59;;;;;;;1.57;1.10;;;11.20;98.20;;;;;;4896586;29;20499;-75
2022/09/17 05:27:27;;;;;;;1.50;1.10;;;11.10;98.20;;;;;;4899071;29;20593;-75
2022/09/17 05:29:54;;;;;;;1.50;1.10;;;11.20;98.20;;;;;;4900835;29;20474;-76
2022/09/17 05:32:22;;;;;;;1.50;1.10;;;11.10;98.20;;;;;;4898474;29;20806;-75
2022/09/17 05:34:51;;;;;;;1.50;1.10;;;11.10;98.20;;;;;;4904320;29;20521;-77
2022/09/17 05:37:21;;;;;;;1.50;1.20;;;11.10;98.20;;;;;;4900842;29;20469;-75
2022/09/17 05:39:49;;;;;;;1.53;1.10;;;11.10;98.20;;;;;;4900663;29;20513;-75
2022/09/17 05:42:16;;;;;;;1.53;1.10;;;11.20;98.20;;;;;;4900592;29;20469;-75
2022/09/17 05:44:44;;;;;;;1.53;1.10;;;11.20;98.20;;;;;;4900874;29;20485;-75
2022/09/17 05:47:11;;;;;;;1.50;1.10;;;11.20;98.20;;;;;;4898230;29;20521;-76
2022/09/17 05:49:45;;;;;;;1.50;1.10;;;11.30;98.20;;;;;;4901520;29;20470;-76
2022/09/17 05:52:13;;;;;;;1.50;1.10;;;11.30;98.20;;;;;;4901569;29;20769;-75
2022/09/17 05:55:01;;;;;;;1.57;1.17;;;11.40;98.20;;;;;;4902290;29;20936;-75
2022/09/17 05:58:31;;;;;;;1.53;1.10;;;11.40;98.20;;;;;;4908748;29;20492;-76
2022/09/17 06:02:05;;;;;;;1.53;1.10;;;11.60;98.20;;;;;;4895331;29;20480;-74
2022/09/17 06:21:28;;;;;;;1.50;1.10;;;12.20;98.20;;;;;;4880013;29;20853;-76
2022/09/17 06:24:30;;;;;;;1.53;1.10;;;12.30;98.20;;;;;;4912956;23;20526;-75
2022/09/17 06:27:13;;;;;;;1.50;1.10;;;12.30;98.20;;;;;;4968680;28;20481;-76
2022/09/17 06:29:41;;;;;;;1.50;1.10;;;12.30;98.20;;;;;;4973160;28;20470;-76
2022/09/17 06:32:10;;;;;;;1.50;1.10;;;12.30;98.20;;;;;;4972309;28;20499;-77
2022/09/17 06:34:43;;;;;;;1.50;1.10;;;12.30;98.20;;;;;;4977438;28;20486;-76
2022/09/17 06:37:11;;;;;;;1.50;1.10;;;12.30;98.20;;;;;;4973239;28;20466;-75
2022/09/17 06:39:38;;;;;;;1.57;1.10;;;12.20;98.20;;;;;;4978910;28;20519;-76
2022/09/17 06:42:19;;;;;;;1.50;1.10;;;12.20;98.20;;;;;;4979363;28;20899;-76
2022/09/17 06:44:52;;;;;;;1.50;1.10;;;12.10;98.20;;;;;;4976691;28;20644;-75
2022/09/17 06:47:20;;;;;;;1.53;1.10;;;12.10;98.20;;;;;;4974524;28;20548;-74
2022/09/17 06:49:55;;;;;;;1.50;1.07;;;12.10;98.20;;;;;;4975153;28;20581;-75
2022/09/17 06:52:52;;;;;;;1.53;1.10;;;12.10;98.20;;;;;;4976496;28;20472;-77
2022/09/17 06:55:48;;;;;;;1.50;1.00;;;12.10;98.20;;;;;;4974538;28;20489;-75
2022/09/17 06:58:35;;;;;;;1.53;1.10;;;12.10;98.20;;;;;;4967072;28;20473;-78
2022/09/17 07:01:04;;;;;;;1.60;1.20;;;12.20;98.20;;;;;;4973291;28;20470;-75
2022/09/17 07:04:07;;;;;;;1.50;1.00;;;12.30;98.20;;;;;;4974211;28;20466;-76
2022/09/17 07:06:39;;;;;;;1.60;1.10;;;12.60;98.20;;;;;;4936638;28;20528;-75
2022/09/17 07:09:38;;;;;;;1.53;1.10;;;12.80;98.20;;;;;;4975695;28;20909;-76
2022/09/17 07:14:57;;;;;;;1.50;1.00;;;13.20;98.20;;;;;;4901126;28;20581;-76
2022/09/17 07:17:41;;;;;;;1.50;1.10;;;13.30;98.20;;;;;;4975339;28;20466;-76
2022/09/17 07:20:16;;;;;;;1.53;1.10;;;13.30;98.20;;;;;;4974846;28;20879;-76
2022/09/17 07:23:00;;;;;;;1.50;1.00;;;13.30;98.20;;;;;;4972256;28;20457;-76
2022/09/17 07:25:37;;;;;;;1.50;1.00;;;13.40;98.20;;;;;;4973876;28;20493;-76
2022/09/17 07:28:13;;;;;;;1.50;1.00;;;13.50;98.20;;;;;;4975060;28;20537;-75
2022/09/17 07:30:40;;;;;;;1.50;1.00;;;13.50;98.20;;;;;;4974759;28;20508;-76
2022/09/17 07:33:13;;;;;;;1.50;1.00;;;13.60;98.20;;;;;;4974387;28;20488;-76
2022/09/17 07:57:02;;;;;;;1.50;1.00;;;15.20;98.20;;;;;;4981122;23;20497;-76
2022/09/17 08:03:04;;;;;;;1.53;1.00;;;15.60;98.20;;;;;;4964573;28;20492;-74
2022/09/17 08:09:28;;;;;;;1.50;0.90;;;15.90;98.20;;;;;;4972173;28;20480;-75
2022/09/17 08:15:50;;;;;;;;;;;;;;;;;;;;;
2022/09/17 08:39:12;;;;;;;1.50;1.00;;;16.50;94.80;;;;;;5594301;23;20482;-76
2022/09/17 08:42:06;;;;;;;1.50;0.93;;;16.70;95.10;;;;;;4894641;29;20479;-75
2022/09/17 08:44:49;;;;;;;1.50;0.90;;;17.00;92.20;;;;;;4905595;28;20528;-74
2022/09/17 08:47:35;;;;;;;1.50;0.97;;;17.20;93.70;;;;;;4959210;28;20580;-75
2022/09/17 08:50:14;;;;;;;1.53;0.97;;;17.30;92.40;;;;;;4964764;28;20462;-76
2022/09/17 08:53:09;;;;;;;1.60;1.00;;;17.30;92.10;;;;;;4969938;28;20661;-75
2022/09/17 08:55:45;;;;;;;1.50;1.00;;;17.50;92.30;;;;;;4961154;28;20509;-75
2022/09/17 08:58:44;;;;;;;1.50;0.90;;;17.60;91.70;;;;;;4966739;28;20457;-76
2022/09/17 09:01:50;;;;;;;1.50;1.00;;;17.70;91.10;;;;;;4962907;28;21111;-75
2022/09/17 09:04:56;;;;;;;1.50;0.90;;;17.70;90.50;;;;;;4956133;28;20854;-75
2022/09/17 09:07:45;;;;;;;1.50;0.90;;;17.70;90.60;;;;;;4956431;28;20482;-75
2022/09/17 09:10:18;;;;;;;1.53;1.00;;;17.70;90.50;;;;;;4960369;28;20518;-75
2022/09/17 09:12:52;;;;;;;1.50;1.00;;;17.80;89.10;;;;;;4965051;28;20516;-75
2022/09/17 09:15:34;;;;;;;1.50;1.00;;;17.90;87.30;;;;;;4965893;28;20581;-75
2022/09/17 09:18:08;;;;;;;1.50;0.90;;;18.00;88.90;;;;;;4959087;28;20467;-75
2022/09/17 09:20:45;;;;;;;1.60;1.10;;;18.20;88.00;;;;;;4969882;28;20475;-74
2022/09/17 09:23:19;;;;;;;1.53;0.90;;;18.40;87.10;;;;;;4964684;28;20860;-74
2022/09/17 09:25:59;;;;;;;1.50;0.90;;;18.60;85.60;;;;;;4964552;28;20529;-75
2022/09/17 09:29:31;;;;;;;1.50;0.90;;;18.80;87.00;;;;;;4964242;28;20532;-73
2022/09/17 09:32:22;;;;;;;1.50;0.90;;;18.80;85.10;;;;;;4879855;28;20463;-74
2022/09/17 09:34:50;;;;;;;1.50;0.90;;;18.50;85.30;;;;;;4960178;28;20483;-75
2022/09/17 09:37:28;;;;;;;1.50;0.97;;;18.40;86.00;;;;;;4967149;28;20475;-75
2022/09/17 09:40:18;;;;;;;1.50;0.90;;;18.50;86.60;;;;;;4955664;28;20482;-75
2022/09/17 09:42:56;;;;;;;1.50;0.90;;;18.70;84.00;;;;;;4971580;28;20517;-75
2022/09/17 09:45:44;;;;;;;1.50;0.90;;;18.70;84.50;;;;;;4962899;28;20486;-75
2022/09/17 09:48:23;;;;;;;1.50;0.90;;;19.00;85.80;;;;;;4962689;28;20537;-75
2022/09/17 09:51:05;;;;;;;1.53;0.90;;;19.20;84.20;;;;;;4960500;28;20951;-76
2022/09/17 09:53:43;;;;;;;1.50;0.90;;;19.40;84.70;;;;;;4966748;28;20508;-75
2022/09/17 09:56:24;;;;;;;1.50;1.00;;;19.30;83.30;;;;;;4960522;28;20505;-73
2022/09/17 09:58:52;;;;;;;1.50;1.00;;;19.00;82.30;;;;;;4968287;28;20493;-73
2022/09/17 10:01:21;;;;;;;2.47;1.97;;;18.70;84.30;;;;;;4960991;28;20540;-73
2022/09/17 10:03:52;;;;;;;1.50;0.90;;;18.50;84.00;;;;;;4954274;28;20469;-72
2022/09/17 10:06:24;;;;;;;1.50;1.00;;;18.50;84.10;;;;;;4949172;28;20574;-76
2022/09/17 10:19:43;;;;;;;;;;;;;;;;;;;;;
2022/09/17 10:22:38;;;;;;;1.50;0.90;;;18.00;86.10;;;;;;4821953;29;20584;-75
2022/09/17 10:25:49;;;;;;;1.50;0.90;;;18.40;85.20;;;;;;4822029;29;20507;-77
2022/09/17 11:07:34;;;;;;;1.50;0.90;;;20.80;77.30;;;;;;4957689;23;20496;-76
2022/09/17 11:10:49;;;;;;;1.50;0.90;;;20.80;77.50;;;;;;4926049;29;20463;-75
2022/09/17 11:17:20;;;;;;;1.50;0.90;;;20.50;76.90;;;;;;5426138;23;20494;-76
2022/09/17 11:20:35;;;;;;;1.50;0.90;;;20.60;76.10;;;;;;4893698;29;20486;-74
2022/09/17 11:23:21;;;;;;;1.50;0.90;;;21.00;77.00;;;;;;4952306;29;20486;-74
2022/09/17 11:26:11;;;;;;;1.50;0.90;;;21.10;75.10;;;;;;4953900;29;20489;-74
2022/09/17 11:32:49;;;;;;;1.50;0.90;;;20.90;72.80;;;;;;4852415;29;20538;-75
2022/09/17 11:35:22;;;;;;;1.50;0.90;;;20.50;75.60;;;;;;4881488;29;20553;-74
2022/09/17 11:38:03;;;;;;;1.50;0.90;;;20.00;76.80;;;;;;4953120;29;20917;-76
2022/09/17 11:46:43;;;;;;;1.60;1.10;;;18.00;94.20;;;;;;5526094;23;20754;-75
2022/09/17 11:50:01;;;;;;;1.50;0.90;;;17.50;97.50;;;;;;4948603;28;20490;-74
2022/09/17 11:53:26;;;;;;;1.50;0.90;;;16.90;98.20;;;;;;4893900;29;21242;-74
2022/09/17 11:55:57;;;;;;;1.50;1.00;;;16.70;98.20;;;;;;5281341;23;21191;-79
2022/09/17 11:58:39;;;;;;;1.50;1.10;;;16.70;98.20;;;;;;4940930;29;20468;-80
2022/09/17 12:01:35;;;;;;;1.50;0.90;;;16.70;98.20;;;;;;4938084;29;20474;-78
2022/09/17 12:10:58;;;;;;;1.50;0.90;;;17.70;98.20;;;;;;4912740;29;20523;-78
2022/09/17 12:14:16;;;;;;;1.50;0.90;;;18.00;97.70;;;;;;4914805;29;20472;-79
2022/09/17 12:23:46;;;;;;;1.50;0.90;;;19.00;93.80;;;;;;4916038;29;20460;-79
2022/09/17 12:26:47;;;;;;;1.50;0.90;;;19.30;94.10;;;;;;4859465;23;20503;-80
2022/09/17 12:29:53;;;;;;;1.50;0.90;;;19.50;91.80;;;;;;4931434;29;20479;-80
2022/09/17 12:32:51;;;;;;;1.50;0.90;;;19.70;90.00;;;;;;4933610;29;20489;-79
2022/09/17 12:35:35;;;;;;;1.50;0.90;;;19.70;88.30;;;;;;4932431;29;21331;-78
2022/09/17 12:38:20;;;;;;;1.50;0.90;;;19.60;88.20;;;;;;4915107;29;20835;-78
2022/09/17 12:41:05;;;;;;;1.50;0.90;;;19.60;90.80;;;;;;4914671;29;20472;-80
2022/09/17 12:44:06;;;;;;;1.50;0.90;;;19.60;88.30;;;;;;4914570;29;21000;-79
2022/09/17 12:47:00;;;;;;;1.50;0.90;;;19.50;87.80;;;;;;4913293;29;20499;-78
2022/09/17 12:56:39;;;;;;;1.50;0.90;;;16.90;93.50;;;;;;4908303;29;20471;-78
2022/09/17 12:59:14;;;;;;;1.50;0.90;;;16.20;96.80;;;;;;4908537;29;20490;-79
2022/09/17 13:01:51;;;;;;;1.50;0.90;;;15.70;98.20;;;;;;4910514;29;20471;-78
2022/09/17 13:04:44;;;;;;;1.50;1.00;;;15.50;98.20;;;;;;4889949;29;20572;-78
2022/09/17 13:07:51;;;;;;;1.50;0.90;;;15.30;98.20;;;;;;4908120;29;20587;-79
2022/09/17 13:10:48;;;;;;;1.53;1.10;;;15.20;98.20;;;;;;4907066;29;20477;-78
2022/09/17 13:13:29;;;;;;;1.50;1.00;;;15.10;98.20;;;;;;4901375;29;20908;-78
2022/09/17 13:16:04;;;;;;;1.50;0.93;;;15.10;98.20;;;;;;4906990;29;21021;-77
2022/09/17 13:18:39;;;;;;;1.50;1.00;;;15.20;98.20;;;;;;4905348;29;20505;-78
2022/09/17 13:21:13;;;;;;;1.50;0.90;;;15.40;98.20;;;;;;4908887;29;20567;-77
2022/09/17 13:23:54;;;;;;;1.50;0.90;;;15.40;98.20;;;;;;4909721;29;20961;-77
2022/09/17 13:26:40;;;;;;;1.50;0.97;;;15.30;98.20;;;;;;4915639;29;20571;-78
2022/09/17 13:29:15;;;;;;;1.50;1.00;;;15.10;98.20;;;;;;4914985;29;20494;-77
2022/09/17 13:31:56;;;;;;;1.50;0.90;;;15.20;98.20;;;;;;4917575;29;20571;-78
2022/09/17 13:34:34;;;;;;;1.50;1.00;;;15.40;98.20;;;;;;4913023;29;20473;-77
2022/09/17 13:37:36;;;;;;;1.50;0.90;;;15.80;98.20;;;;;;4916921;29;20495;-78
2022/09/17 13:40:28;;;;;;;1.50;0.90;;;16.20;98.20;;;;;;4916945;29;20468;-77
2022/09/17 13:43:02;;;;;;;1.50;0.90;;;16.50;98.20;;;;;;4915632;29;20469;-77
2022/09/17 13:45:30;;;;;;;1.50;0.90;;;16.80;98.20;;;;;;4910192;29;20469;-77
2022/09/17 13:48:01;;;;;;;1.50;0.90;;;17.00;97.80;;;;;;4910813;29;20472;-78
2022/09/17 13:50:34;;;;;;;1.50;0.90;;;17.10;97.30;;;;;;4906473;29;20592;-77
2022/09/17 13:53:08;;;;;;;1.50;0.90;;;17.40;97.80;;;;;;4903527;29;20484;-77
2022/09/17 13:55:38;;;;;;;1.50;0.90;;;17.70;98.20;;;;;;4905303;29;20516;-77
2022/09/17 13:58:09;;;;;;;1.50;0.90;;;17.90;96.00;;;;;;4911103;29;20588;-77
2022/09/17 14:00:52;;;;;;;1.50;1.00;;;18.10;93.60;;;;;;4908889;29;20477;-77
2022/09/17 14:03:52;;;;;;;1.50;0.90;;;18.30;94.00;;;;;;4903550;29;20966;-78
2022/09/17 14:06:52;;;;;;;1.50;0.90;;;18.50;93.20;;;;;;4904478;29;20588;-77
2022/09/17 14:09:52;;;;;;;1.50;0.90;;;18.50;92.30;;;;;;4903820;29;20577;-77
2022/09/17 14:12:56;;;;;;;1.50;0.90;;;18.50;91.00;;;;;;4863213;29;20561;-77
2022/09/17 14:15:36;;;;;;;1.50;0.90;;;18.40;91.70;;;;;;4906715;29;20853;-78
2022/09/17 14:18:37;;;;;;;1.50;0.90;;;18.30;91.80;;;;;;4905280;29;20472;-77
2022/09/17 14:21:25;;;;;;;1.50;0.90;;;18.10;91.80;;;;;;4906104;29;20545;-77
2022/09/17 14:23:58;;;;;;;1.50;1.10;;;17.80;92.80;;;;;;4905929;29;20507;-76
2022/09/17 14:26:59;;;;;;;1.50;0.90;;;17.50;94.00;;;;;;4907167;29;20500;-78
2022/09/17 14:29:48;;;;;;;1.50;0.90;;;17.20;92.10;;;;;;4906473;29;20488;-77
2022/09/17 14:32:19;;;;;;;1.50;1.00;;;16.90;92.10;;;;;;4905868;29;20477;-78
2022/09/17 14:34:47;;;;;;;1.50;0.90;;;16.60;92.60;;;;;;4904609;29;20460;-77
2022/09/17 14:37:18;;;;;;;1.50;0.90;;;16.40;93.60;;;;;;4903568;29;20525;-77
2022/09/17 14:39:48;;;;;;;1.50;0.90;;;16.30;93.50;;;;;;4906980;29;20933;-77
2022/09/17 14:42:22;;;;;;;1.50;1.00;;;16.20;94.50;;;;;;4906189;29;20472;-78
2022/09/17 14:44:59;;;;;;;1.50;1.00;;;16.20;93.60;;;;;;4906203;29;20535;-77
2022/09/17 14:47:27;;;;;;;1.50;0.90;;;16.20;94.60;;;;;;4903221;29;20489;-76
2022/09/17 14:49:54;;;;;;;1.50;0.90;;;16.30;95.80;;;;;;4905225;29;20601;-76
2022/09/17 14:52:27;;;;;;;1.50;0.93;;;16.30;94.20;;;;;;4904398;29;20487;-76
2022/09/17 14:55:18;;;;;;;1.50;1.00;;;16.20;94.40;;;;;;4907186;29;20479;-77
2022/09/17 14:57:49;;;;;;;1.50;1.00;;;16.00;97.80;;;;;;4905307;29;20772;-80
2022/09/17 15:00:24;;;;;;;1.50;1.00;;;15.90;98.20;;;;;;4906879;29;20468;-79
2022/09/17 15:02:58;;;;;;;1.50;0.90;;;15.80;98.20;;;;;;4909283;29;20472;-78
2022/09/17 15:05:32;;;;;;;1.50;0.93;;;15.70;98.20;;;;;;4910937;29;21024;-77
2022/09/17 15:08:16;;;;;;;1.50;0.90;;;15.70;98.20;;;;;;4906915;29;20509;-77
2022/09/17 15:10:52;;;;;;;1.50;1.00;;;15.70;98.20;;;;;;4907261;29;20910;-78
2022/09/17 15:13:25;;;;;;;1.50;0.90;;;15.80;98.20;;;;;;4908426;29;20563;-78
2022/09/17 15:16:00;;;;;;;1.50;0.90;;;15.70;98.20;;;;;;4910147;29;20849;-77
2022/09/17 15:18:38;;;;;;;1.50;1.00;;;15.70;98.20;;;;;;4905306;29;20555;-77
2022/09/17 15:21:24;;;;;;;1.50;0.90;;;15.50;98.20;;;;;;4907276;29;20973;-77
2022/09/17 15:23:55;;;;;;;1.50;1.00;;;15.40;98.20;;;;;;4910809;29;20476;-77
2022/09/17 15:26:31;;;;;;;1.50;0.90;;;15.20;98.20;;;;;;4909297;29;20552;-77
2022/09/17 15:29:00;;;;;;;1.50;0.90;;;15.10;98.20;;;;;;4908729;29;20496;-77
2022/09/17 15:31:29;;;;;;;1.50;1.00;;;15.10;98.20;;;;;;4906562;29;20472;-76
2022/09/17 15:33:59;;;;;;;1.50;0.90;;;15.10;98.20;;;;;;4906170;29;20842;-77
2022/09/17 15:36:28;;;;;;;1.50;0.90;;;15.20;98.20;;;;;;4904618;29;20571;-77
2022/09/17 15:38:56;;;;;;;1.50;0.90;;;15.30;98.20;;;;;;4906149;29;20456;-77
2022/09/17 15:41:30;;;;;;;1.50;1.00;;;15.40;97.70;;;;;;4906164;29;20985;-77
2022/09/17 15:44:18;;;;;;;1.50;0.90;;;15.40;98.20;;;;;;4905597;29;20468;-76
2022/09/17 15:46:45;;;;;;;1.50;0.90;;;15.40;98.00;;;;;;4896754;29;20495;-76
2022/09/17 15:49:31;;;;;;;1.50;1.00;;;15.30;98.20;;;;;;4898368;29;20540;-78
2022/09/17 15:52:27;;;;;;;1.50;1.00;;;15.30;98.00;;;;;;4897610;29;20497;-76
2022/09/17 15:54:55;;;;;;;1.50;1.00;;;15.30;97.70;;;;;;4908271;29;20880;-77
2022/09/17 15:57:25;;;;;;;1.50;1.00;;;15.20;97.10;;;;;;4897152;29;20695;-77
2022/09/17 15:59:54;;;;;;;1.50;1.00;;;15.20;98.10;;;;;;4907617;29;20465;-77
2022/09/17 16:02:30;;;;;;;1.50;1.00;;;15.10;97.40;;;;;;4888230;29;20835;-77
2022/09/17 16:06:03;;;;;;;;;;;;;;;;;;;;;
2022/09/17 16:08:35;;;;;;;1.50;1.00;;;15.00;98.20;;;;;;4895720;29;20827;-78
2022/09/17 16:11:03;;;;;;;1.50;0.97;;;14.90;98.20;;;;;;4892710;29;20608;-76
2022/09/17 16:13:32;;;;;;;1.50;1.00;;;15.00;98.20;;;;;;4892722;29;20469;-77
2022/09/17 16:15:59;;;;;;;1.50;0.90;;;15.00;97.50;;;;;;4895196;29;21130;-76
2022/09/17 16:18:26;;;;;;;1.50;0.97;;;14.90;96.60;;;;;;4904216;29;20974;-76
2022/09/17 16:20:54;;;;;;;1.50;1.00;;;14.90;96.20;;;;;;4897608;29;20953;-77